sensor_id;sensor_type;location;lat;lon;timestamp;temperature;humidity
12817;DHT22;6473;51.552;6.716;2023-07-20T00:00:08;17.30;99.90
12817;DHT22;6473;51.552;6.716;2023-07-20T00:02:42;17.30;99.90
12817;DHT22;6473;51.552;6.716;2023-07-20T00:05:09;17.30;99.90
12817;DHT22;6473;51.552;6.716;2023-07-20T00:07:36;17.20;99.90
12817;DHT22;6473;51.552;6.716;2023-07-20T00:10:03;17.20;99.90
12817;DHT22;6473;51.552;6.716;2023-07-20T00:12:30;17.20;99.90
12817;DHT22;6473;51.552;6.716;2023-07-20T00:14:57;17.20;99.90
12817;DHT22;6473;51.552;6.716;2023-07-20T00:17:24;17.30;99.90
12817;DHT22;6473;51.552;6.716;2023-07-20T00:19:52;17.20;99.90
12817;DHT22;6473;51.552;6.716;2023-07-20T00:22:19;17.30;99.90
12817;DHT22;6473;51.552;6.716;2023-07-20T00:24:45;17.30;99.90
12817;DHT22;6473;51.552;6.716;2023-07-20T00:27:12;17.70;99.90
12817;DHT22;6473;51.552;6.716;2023-07-20T00:29:39;18.10;99.90
12817;DHT22;6473;51.552;6.716;2023-07-20T00:32:08;17.50;99.90
12817;DHT22;6473;51.552;6.716;2023-07-20T00:34:35;17.40;99.90
12817;DHT22;6473;51.552;6.716;2023-07-20T00:37:04;17.50;99.90
12817;DHT22;6473;51.552;6.716;2023-07-20T00:39:31;17.50;99.90
12817;DHT22;6473;51.552;6.716;2023-07-20T00:41:58;17.50;99.90
12817;DHT22;6473;51.552;6.716;2023-07-20T00:44:25;17.50;99.90
12817;DHT22;6473;51.552;6.716;2023-07-20T00:46:52;17.50;99.90
12817;DHT22;6473;51.552;6.716;2023-07-20T00:49:19;19.30;99.90
12817;DHT22;6473;51.552;6.716;2023-07-20T00:51:48;17.10;99.90
12817;DHT22;6473;51.552;6.716;2023-07-20T00:54:16;17.00;99.90
12817;DHT22;6473;51.552;6.716;2023-07-20T00:56:44;17.10;99.90
12817;DHT22;6473;51.552;6.716;2023-07-20T00:59:13;17.10;99.90
12817;DHT22;6473;51.552;6.716;2023-07-20T01:01:40;17.20;99.90
12817;DHT22;6473;51.552;6.716;2023-07-20T01:04:06;17.30;99.90
12817;DHT22;6473;51.552;6.716;2023-07-20T01:06:45;17.10;99.90
12817;DHT22;6473;51.552;6.716;2023-07-20T01:09:15;17.20;99.90
12817;DHT22;6473;51.552;6.716;2023-07-20T01:11:52;17.20;99.90
12817;DHT22;6473;51.552;6.716;2023-07-20T01:14:23;17.20;99.90
12817;DHT22;6473;51.552;6.716;2023-07-20T01:16:51;17.20;99.90
12817;DHT22;6473;51.552;6.716;2023-07-20T01:19:18;17.10;99.90
12817;DHT22;6473;51.552;6.716;2023-07-20T01:21:50;16.90;99.90
12817;DHT22;6473;51.552;6.716;2023-07-20T01:27:36;16.80;99.90
12817;DHT22;6473;51.552;6.716;2023-07-20T01:30:24;16.70;99.90
12817;DHT22;6473;51.552;6.716;2023-07-20T01:32:58;16.70;99.90
12817;DHT22;6473;51.552;6.716;2023-07-20T01:35:29;17.30;99.90
12817;DHT22;6473;51.552;6.716;2023-07-20T01:37:56;16.70;99.90
12817;DHT22;6473;51.552;6.716;2023-07-20T01:40:24;16.70;99.90
12817;DHT22;6473;51.552;6.716;2023-07-20T01:42:52;17.00;99.90
12817;DHT22;6473;51.552;6.716;2023-07-20T01:45:21;16.70;99.90
12817;DHT22;6473;51.552;6.716;2023-07-20T01:47:48;16.70;99.90
12817;DHT22;6473;51.552;6.716;2023-07-20T01:50:16;16.70;99.90
12817;DHT22;6473;51.552;6.716;2023-07-20T01:52:43;16.70;99.90
12817;DHT22;6473;51.552;6.716;2023-07-20T01:55:10;16.70;99.90
12817;DHT22;6473;51.552;6.716;2023-07-20T01:57:37;16.60;99.90
12817;DHT22;6473;51.552;6.716;2023-07-20T02:00:17;16.60;99.90
12817;DHT22;6473;51.552;6.716;2023-07-20T02:02:47;16.70;99.90
12817;DHT22;6473;51.552;6.716;2023-07-20T02:05:14;16.60;99.90
12817;DHT22;6473;51.552;6.716;2023-07-20T02:07:42;16.40;99.90
12817;DHT22;6473;51.552;6.716;2023-07-20T02:10:09;16.30;99.90
12817;DHT22;6473;51.552;6.716;2023-07-20T02:12:37;16.20;99.90
12817;DHT22;6473;51.552;6.716;2023-07-20T02:15:05;16.10;99.90
12817;DHT22;6473;51.552;6.716;2023-07-20T02:17:32;16.00;99.90
12817;DHT22;6473;51.552;6.716;2023-07-20T02:19:59;16.00;99.90
12817;DHT22;6473;51.552;6.716;2023-07-20T02:22:26;16.00;99.90
12817;DHT22;6473;51.552;6.716;2023-07-20T02:37:56;15.90;99.90
12817;DHT22;6473;51.552;6.716;2023-07-20T02:40:23;16.00;99.90
12817;DHT22;6473;51.552;6.716;2023-07-20T02:42:49;16.00;99.90
12817;DHT22;6473;51.552;6.716;2023-07-20T02:45:16;16.00;99.90
12817;DHT22;6473;51.552;6.716;2023-07-20T02:47:44;16.00;99.90
12817;DHT22;6473;51.552;6.716;2023-07-20T02:50:16;16.00;99.90
12817;DHT22;6473;51.552;6.716;2023-07-20T02:52:43;15.90;99.90
12817;DHT22;6473;51.552;6.716;2023-07-20T02:55:11;15.90;99.90
12817;DHT22;6473;51.552;6.716;2023-07-20T02:57:40;16.70;99.90
12817;DHT22;6473;51.552;6.716;2023-07-20T03:00:08;16.90;99.90
12817;DHT22;6473;51.552;6.716;2023-07-20T03:02:35;16.00;99.90
12817;DHT22;6473;51.552;6.716;2023-07-20T03:05:02;16.00;99.90
12817;DHT22;6473;51.552;6.716;2023-07-20T03:07:31;16.00;99.90
12817;DHT22;6473;51.552;6.716;2023-07-20T03:09:58;16.00;99.90
12817;DHT22;6473;51.552;6.716;2023-07-20T03:12:26;16.00;99.90
12817;DHT22;6473;51.552;6.716;2023-07-20T03:14:53;16.00;99.90
12817;DHT22;6473;51.552;6.716;2023-07-20T03:17:22;16.10;99.90
12817;DHT22;6473;51.552;6.716;2023-07-20T03:19:50;17.40;99.90
12817;DHT22;6473;51.552;6.716;2023-07-20T03:22:17;16.00;99.90
12817;DHT22;6473;51.552;6.716;2023-07-20T03:25:03;15.90;99.90
12817;DHT22;6473;51.552;6.716;2023-07-20T03:27:31;15.90;99.90
12817;DHT22;6473;51.552;6.716;2023-07-20T03:30:00;15.90;99.90
12817;DHT22;6473;51.552;6.716;2023-07-20T03:32:27;16.00;99.90
12817;DHT22;6473;51.552;6.716;2023-07-20T03:34:53;15.90;99.90
12817;DHT22;6473;51.552;6.716;2023-07-20T03:37:21;16.00;99.90
12817;DHT22;6473;51.552;6.716;2023-07-20T03:39:48;16.10;99.90
12817;DHT22;6473;51.552;6.716;2023-07-20T03:42:15;16.10;99.90
12817;DHT22;6473;51.552;6.716;2023-07-20T03:44:43;16.00;99.90
12817;DHT22;6473;51.552;6.716;2023-07-20T03:47:10;16.00;99.90
12817;DHT22;6473;51.552;6.716;2023-07-20T03:49:37;18.10;99.90
12817;DHT22;6473;51.552;6.716;2023-07-20T03:52:04;16.10;99.90
12817;DHT22;6473;51.552;6.716;2023-07-20T03:54:31;16.10;99.90
12817;DHT22;6473;51.552;6.716;2023-07-20T03:56:58;16.10;99.90
12817;DHT22;6473;51.552;6.716;2023-07-20T03:59:26;16.70;99.90
12817;DHT22;6473;51.552;6.716;2023-07-20T04:01:54;16.20;99.90
12817;DHT22;6473;51.552;6.716;2023-07-20T04:04:21;16.30;99.90
12817;DHT22;6473;51.552;6.716;2023-07-20T04:06:51;16.20;99.90
12817;DHT22;6473;51.552;6.716;2023-07-20T04:09:19;16.00;99.90
12817;DHT22;6473;51.552;6.716;2023-07-20T04:11:46;16.10;99.90
12817;DHT22;6473;51.552;6.716;2023-07-20T04:14:13;16.20;99.90
12817;DHT22;6473;51.552;6.716;2023-07-20T04:16:40;16.20;99.90
12817;DHT22;6473;51.552;6.716;2023-07-20T04:19:08;16.00;99.90
12817;DHT22;6473;51.552;6.716;2023-07-20T04:21:39;17.40;99.90
12817;DHT22;6473;51.552;6.716;2023-07-20T04:24:06;16.80;99.90
12817;DHT22;6473;51.552;6.716;2023-07-20T04:26:34;15.80;99.90
12817;DHT22;6473;51.552;6.716;2023-07-20T04:29:03;15.80;99.90
12817;DHT22;6473;51.552;6.716;2023-07-20T04:31:34;15.70;99.90
12817;DHT22;6473;51.552;6.716;2023-07-20T04:34:02;15.70;99.90
12817;DHT22;6473;51.552;6.716;2023-07-20T04:36:31;15.80;99.90
12817;DHT22;6473;51.552;6.716;2023-07-20T04:38:58;15.80;99.90
12817;DHT22;6473;51.552;6.716;2023-07-20T04:41:23;15.90;99.90
12817;DHT22;6473;51.552;6.716;2023-07-20T04:43:54;16.00;99.90
12817;DHT22;6473;51.552;6.716;2023-07-20T04:46:30;15.90;99.90
12817;DHT22;6473;51.552;6.716;2023-07-20T04:49:00;16.00;99.90
12817;DHT22;6473;51.552;6.716;2023-07-20T04:51:31;17.50;99.90
12817;DHT22;6473;51.552;6.716;2023-07-20T04:53:58;16.20;99.90
12817;DHT22;6473;51.552;6.716;2023-07-20T04:56:28;16.20;99.90
12817;DHT22;6473;51.552;6.716;2023-07-20T04:58:57;16.30;99.90
12817;DHT22;6473;51.552;6.716;2023-07-20T05:01:24;16.10;99.90
12817;DHT22;6473;51.552;6.716;2023-07-20T05:03:52;16.00;99.90
12817;DHT22;6473;51.552;6.716;2023-07-20T05:06:20;16.00;99.90
12817;DHT22;6473;51.552;6.716;2023-07-20T05:08:49;16.00;99.90
12817;DHT22;6473;51.552;6.716;2023-07-20T05:11:15;16.80;99.90
12817;DHT22;6473;51.552;6.716;2023-07-20T05:13:42;16.00;99.90
12817;DHT22;6473;51.552;6.716;2023-07-20T05:16:09;16.10;99.90
12817;DHT22;6473;51.552;6.716;2023-07-20T05:18:36;16.00;99.90
12817;DHT22;6473;51.552;6.716;2023-07-20T05:21:03;16.00;99.90
12817;DHT22;6473;51.552;6.716;2023-07-20T05:26:15;15.80;99.90
12817;DHT22;6473;51.552;6.716;2023-07-20T05:28:42;16.30;99.90
12817;DHT22;6473;51.552;6.716;2023-07-20T05:31:08;17.30;99.90
12817;DHT22;6473;51.552;6.716;2023-07-20T05:33:35;16.10;99.90
12817;DHT22;6473;51.552;6.716;2023-07-20T05:36:02;16.20;99.90
12817;DHT22;6473;51.552;6.716;2023-07-20T05:38:29;16.40;99.90
12817;DHT22;6473;51.552;6.716;2023-07-20T05:40:59;16.50;99.90
12817;DHT22;6473;51.552;6.716;2023-07-20T05:43:29;16.60;99.90
12817;DHT22;6473;51.552;6.716;2023-07-20T05:45:55;18.20;99.90
12817;DHT22;6473;51.552;6.716;2023-07-20T05:48:23;16.70;99.90
12817;DHT22;6473;51.552;6.716;2023-07-20T05:50:50;16.70;99.90
12817;DHT22;6473;51.552;6.716;2023-07-20T05:53:17;17.00;99.90
12817;DHT22;6473;51.552;6.716;2023-07-20T05:55:44;16.80;99.90
12817;DHT22;6473;51.552;6.716;2023-07-20T05:58:11;16.80;99.90
12817;DHT22;6473;51.552;6.716;2023-07-20T06:00:39;16.80;99.90
12817;DHT22;6473;51.552;6.716;2023-07-20T06:03:06;17.30;99.90
12817;DHT22;6473;51.552;6.716;2023-07-20T06:05:36;17.00;99.90
12817;DHT22;6473;51.552;6.716;2023-07-20T06:08:04;18.30;99.90
12817;DHT22;6473;51.552;6.716;2023-07-20T06:10:30;18.20;99.90
12817;DHT22;6473;51.552;6.716;2023-07-20T06:12:57;18.50;99.90
12817;DHT22;6473;51.552;6.716;2023-07-20T06:15:26;19.10;99.90
12817;DHT22;6473;51.552;6.716;2023-07-20T06:17:55;19.80;99.90
12817;DHT22;6473;51.552;6.716;2023-07-20T06:20:23;20.50;99.90
12817;DHT22;6473;51.552;6.716;2023-07-20T06:22:50;22.30;99.90
12817;DHT22;6473;51.552;6.716;2023-07-20T06:25:17;21.70;96.70
12817;DHT22;6473;51.552;6.716;2023-07-20T06:27:44;22.10;77.50
12817;DHT22;6473;51.552;6.716;2023-07-20T06:30:11;22.50;64.70
12817;DHT22;6473;51.552;6.716;2023-07-20T06:32:38;23.00;47.70
12817;DHT22;6473;51.552;6.716;2023-07-20T06:35:07;22.90;43.60
12817;DHT22;6473;51.552;6.716;2023-07-20T06:37:34;22.80;29.30
12817;DHT22;6473;51.552;6.716;2023-07-20T06:40:02;23.30;39.60
12817;DHT22;6473;51.552;6.716;2023-07-20T06:42:30;23.10;22.80
12817;DHT22;6473;51.552;6.716;2023-07-20T06:44:57;23.10;19.60
12817;DHT22;6473;51.552;6.716;2023-07-20T06:47:24;22.90;26.80
12817;DHT22;6473;51.552;6.716;2023-07-20T06:49:51;23.00;24.80
12817;DHT22;6473;51.552;6.716;2023-07-20T06:52:19;22.40;32.40
12817;DHT22;6473;51.552;6.716;2023-07-20T06:54:46;22.10;36.40
12817;DHT22;6473;51.552;6.716;2023-07-20T06:57:13;22.00;40.60
12817;DHT22;6473;51.552;6.716;2023-07-20T06:59:40;22.10;46.40
12817;DHT22;6473;51.552;6.716;2023-07-20T07:02:06;22.70;36.90
12817;DHT22;6473;51.552;6.716;2023-07-20T07:04:33;22.50;21.70
12817;DHT22;6473;51.552;6.716;2023-07-20T07:07:01;22.40;19.60
12817;DHT22;6473;51.552;6.716;2023-07-20T07:09:30;22.20;27.00
12817;DHT22;6473;51.552;6.716;2023-07-20T07:11:57;21.90;39.90
12817;DHT22;6473;51.552;6.716;2023-07-20T07:14:24;21.80;43.20
12817;DHT22;6473;51.552;6.716;2023-07-20T07:16:51;21.70;37.30
12817;DHT22;6473;51.552;6.716;2023-07-20T07:19:18;21.80;41.00
12817;DHT22;6473;51.552;6.716;2023-07-20T07:21:45;21.60;36.30
12817;DHT22;6473;51.552;6.716;2023-07-20T07:24:12;21.20;41.40
12817;DHT22;6473;51.552;6.716;2023-07-20T07:26:40;20.70;51.00
12817;DHT22;6473;51.552;6.716;2023-07-20T07:29:07;20.60;62.60
12817;DHT22;6473;51.552;6.716;2023-07-20T07:31:34;20.30;80.90
12817;DHT22;6473;51.552;6.716;2023-07-20T07:34:02;20.70;91.70
12817;DHT22;6473;51.552;6.716;2023-07-20T07:36:30;21.10;66.60
12817;DHT22;6473;51.552;6.716;2023-07-20T07:38:57;22.10;44.40
12817;DHT22;6473;51.552;6.716;2023-07-20T07:41:24;22.20;30.60
12817;DHT22;6473;51.552;6.716;2023-07-20T07:43:52;22.60;27.90
12817;DHT22;6473;51.552;6.716;2023-07-20T07:46:19;22.50;17.10
12817;DHT22;6473;51.552;6.716;2023-07-20T07:48:46;22.10;23.40
12817;DHT22;6473;51.552;6.716;2023-07-20T07:51:13;22.80;23.30
12817;DHT22;6473;51.552;6.716;2023-07-20T07:53:41;23.30;20.00
12817;DHT22;6473;51.552;6.716;2023-07-20T07:56:09;23.80;1.00
12817;DHT22;6473;51.552;6.716;2023-07-20T07:58:36;24.00;1.00
12817;DHT22;6473;51.552;6.716;2023-07-20T08:01:04;23.30;1.00
12817;DHT22;6473;51.552;6.716;2023-07-20T08:03:31;22.90;1.00
12817;DHT22;6473;51.552;6.716;2023-07-20T08:05:57;22.60;3.00
12817;DHT22;6473;51.552;6.716;2023-07-20T08:08:25;22.30;4.80
12817;DHT22;6473;51.552;6.716;2023-07-20T08:10:53;21.70;22.60
12817;DHT22;6473;51.552;6.716;2023-07-20T08:13:21;21.30;34.10
12817;DHT22;6473;51.552;6.716;2023-07-20T08:15:49;21.30;45.70
12817;DHT22;6473;51.552;6.716;2023-07-20T08:18:18;21.10;54.50
12817;DHT22;6473;51.552;6.716;2023-07-20T08:20:45;21.10;49.70
12817;DHT22;6473;51.552;6.716;2023-07-20T08:23:13;21.40;61.40
12817;DHT22;6473;51.552;6.716;2023-07-20T08:25:40;22.10;46.90
12817;DHT22;6473;51.552;6.716;2023-07-20T08:28:10;22.60;12.90
12817;DHT22;6473;51.552;6.716;2023-07-20T08:30:41;23.20;1.00
12817;DHT22;6473;51.552;6.716;2023-07-20T08:33:09;24.10;7.80
12817;DHT22;6473;51.552;6.716;2023-07-20T08:35:38;25.00;1.00
12817;DHT22;6473;51.552;6.716;2023-07-20T08:38:06;25.50;1.00
12817;DHT22;6473;51.552;6.716;2023-07-20T08:40:34;25.90;1.00
12817;DHT22;6473;51.552;6.716;2023-07-20T08:43:05;26.40;1.00
12817;DHT22;6473;51.552;6.716;2023-07-20T08:45:33;26.60;1.00
12817;DHT22;6473;51.552;6.716;2023-07-20T08:48:01;26.50;1.00
12817;DHT22;6473;51.552;6.716;2023-07-20T08:50:30;26.40;1.00
12817;DHT22;6473;51.552;6.716;2023-07-20T08:52:59;25.70;1.00
12817;DHT22;6473;51.552;6.716;2023-07-20T08:55:28;25.20;1.00
12817;DHT22;6473;51.552;6.716;2023-07-20T08:57:56;24.80;1.00
12817;DHT22;6473;51.552;6.716;2023-07-20T09:00:24;25.10;1.00
12817;DHT22;6473;51.552;6.716;2023-07-20T09:02:52;25.40;1.00
12817;DHT22;6473;51.552;6.716;2023-07-20T09:05:20;25.30;1.00
12817;DHT22;6473;51.552;6.716;2023-07-20T09:07:48;25.40;1.00
12817;DHT22;6473;51.552;6.716;2023-07-20T09:10:16;25.80;1.00
12817;DHT22;6473;51.552;6.716;2023-07-20T09:12:43;26.40;1.00
12817;DHT22;6473;51.552;6.716;2023-07-20T09:15:11;26.70;1.00
12817;DHT22;6473;51.552;6.716;2023-07-20T09:17:39;26.80;1.00
12817;DHT22;6473;51.552;6.716;2023-07-20T09:20:07;26.80;1.00
12817;DHT22;6473;51.552;6.716;2023-07-20T09:22:37;26.80;1.00
12817;DHT22;6473;51.552;6.716;2023-07-20T09:33:53;26.00;1.00
12817;DHT22;6473;51.552;6.716;2023-07-20T09:36:20;26.40;1.00
12817;DHT22;6473;51.552;6.716;2023-07-20T09:38:46;26.90;1.00
12817;DHT22;6473;51.552;6.716;2023-07-20T09:41:14;26.90;1.00
12817;DHT22;6473;51.552;6.716;2023-07-20T09:43:42;27.60;1.00
12817;DHT22;6473;51.552;6.716;2023-07-20T09:46:09;27.70;1.00
12817;DHT22;6473;51.552;6.716;2023-07-20T09:48:36;27.80;1.00
12817;DHT22;6473;51.552;6.716;2023-07-20T09:51:07;27.80;1.00
12817;DHT22;6473;51.552;6.716;2023-07-20T09:53:34;27.80;1.00
12817;DHT22;6473;51.552;6.716;2023-07-20T09:56:02;28.30;1.00
12817;DHT22;6473;51.552;6.716;2023-07-20T09:58:32;28.10;1.00
12817;DHT22;6473;51.552;6.716;2023-07-20T10:01:02;27.60;1.00
12817;DHT22;6473;51.552;6.716;2023-07-20T10:03:33;28.20;1.00
12817;DHT22;6473;51.552;6.716;2023-07-20T10:06:06;28.00;1.00
12817;DHT22;6473;51.552;6.716;2023-07-20T10:08:36;27.50;1.00
12817;DHT22;6473;51.552;6.716;2023-07-20T10:11:07;26.50;1.00
12817;DHT22;6473;51.552;6.716;2023-07-20T10:13:38;25.30;1.00
12817;DHT22;6473;51.552;6.716;2023-07-20T10:16:10;25.90;1.00
12817;DHT22;6473;51.552;6.716;2023-07-20T10:18:41;26.20;1.00
12817;DHT22;6473;51.552;6.716;2023-07-20T10:21:17;26.80;1.00
12817;DHT22;6473;51.552;6.716;2023-07-20T10:26:27;26.80;1.00
12817;DHT22;6473;51.552;6.716;2023-07-20T10:28:54;28.00;1.00
12817;DHT22;6473;51.552;6.716;2023-07-20T10:31:21;28.60;1.00
12817;DHT22;6473;51.552;6.716;2023-07-20T10:33:49;28.00;1.00
12817;DHT22;6473;51.552;6.716;2023-07-20T10:36:24;26.70;1.00
12817;DHT22;6473;51.552;6.716;2023-07-20T10:38:53;27.10;1.00
12817;DHT22;6473;51.552;6.716;2023-07-20T10:41:21;28.30;1.00
12817;DHT22;6473;51.552;6.716;2023-07-20T10:43:50;29.30;1.00
12817;DHT22;6473;51.552;6.716;2023-07-20T10:46:41;29.40;1.00
12817;DHT22;6473;51.552;6.716;2023-07-20T11:05:34;30.70;1.00
12817;DHT22;6473;51.552;6.716;2023-07-20T11:19:36;29.80;1.00
12817;DHT22;6473;51.552;6.716;2023-07-20T11:22:17;29.60;1.00
12817;DHT22;6473;51.552;6.716;2023-07-20T11:27:19;29.10;1.00
12817;DHT22;6473;51.552;6.716;2023-07-20T11:29:48;29.10;1.00
12817;DHT22;6473;51.552;6.716;2023-07-20T11:32:20;29.40;1.00
12817;DHT22;6473;51.552;6.716;2023-07-20T11:34:48;29.70;1.00
12817;DHT22;6473;51.552;6.716;2023-07-20T11:37:18;29.80;1.00
12817;DHT22;6473;51.552;6.716;2023-07-20T11:39:45;29.50;1.00
12817;DHT22;6473;51.552;6.716;2023-07-20T11:42:12;29.50;1.00
12817;DHT22;6473;51.552;6.716;2023-07-20T11:44:39;29.10;1.00
12817;DHT22;6473;51.552;6.716;2023-07-20T11:52:04;28.80;1.00
12817;DHT22;6473;51.552;6.716;2023-07-20T11:57:00;30.10;1.00
12817;DHT22;6473;51.552;6.716;2023-07-20T11:59:27;29.60;1.00
12817;DHT22;6473;51.552;6.716;2023-07-20T12:32:15;25.20;1.00
12817;DHT22;6473;51.552;6.716;2023-07-20T12:34:42;24.80;1.00
12817;DHT22;6473;51.552;6.716;2023-07-20T12:37:09;25.10;1.00
12817;DHT22;6473;51.552;6.716;2023-07-20T12:39:35;25.60;1.00
12817;DHT22;6473;51.552;6.716;2023-07-20T12:42:03;25.90;1.00
12817;DHT22;6473;51.552;6.716;2023-07-20T12:44:30;26.20;1.00
12817;DHT22;6473;51.552;6.716;2023-07-20T12:46:57;26.00;1.00
12817;DHT22;6473;51.552;6.716;2023-07-20T12:49:26;26.10;1.00
12817;DHT22;6473;51.552;6.716;2023-07-20T12:51:53;26.20;1.00
12817;DHT22;6473;51.552;6.716;2023-07-20T12:54:20;26.20;1.00
12817;DHT22;6473;51.552;6.716;2023-07-20T12:56:46;24.60;1.00
12817;DHT22;6473;51.552;6.716;2023-07-20T12:59:13;25.00;1.00
12817;DHT22;6473;51.552;6.716;2023-07-20T13:01:40;24.70;1.00
12817;DHT22;6473;51.552;6.716;2023-07-20T13:04:08;25.50;1.00
12817;DHT22;6473;51.552;6.716;2023-07-20T13:06:37;26.40;1.00
12817;DHT22;6473;51.552;6.716;2023-07-20T13:09:04;26.70;1.00
12817;DHT22;6473;51.552;6.716;2023-07-20T13:11:30;25.90;1.00
12817;DHT22;6473;51.552;6.716;2023-07-20T13:13:57;26.00;1.00
12817;DHT22;6473;51.552;6.716;2023-07-20T13:16:24;26.20;1.00
12817;DHT22;6473;51.552;6.716;2023-07-20T13:18:51;26.80;1.00
12817;DHT22;6473;51.552;6.716;2023-07-20T13:21:18;27.10;1.00
12817;DHT22;6473;51.552;6.716;2023-07-20T13:23:49;27.00;1.00
12817;DHT22;6473;51.552;6.716;2023-07-20T13:26:16;26.70;1.00
12817;DHT22;6473;51.552;6.716;2023-07-20T13:28:43;26.40;1.00
12817;DHT22;6473;51.552;6.716;2023-07-20T13:31:10;26.30;1.00
12817;DHT22;6473;51.552;6.716;2023-07-20T13:33:37;26.60;1.00
12817;DHT22;6473;51.552;6.716;2023-07-20T13:36:05;27.10;1.00
12817;DHT22;6473;51.552;6.716;2023-07-20T13:38:32;27.30;1.00
12817;DHT22;6473;51.552;6.716;2023-07-20T13:41:00;27.10;1.00
12817;DHT22;6473;51.552;6.716;2023-07-20T13:43:27;27.40;1.00
12817;DHT22;6473;51.552;6.716;2023-07-20T13:45:54;27.40;1.00
12817;DHT22;6473;51.552;6.716;2023-07-20T13:48:20;27.40;1.00
12817;DHT22;6473;51.552;6.716;2023-07-20T13:50:48;27.20;1.00
12817;DHT22;6473;51.552;6.716;2023-07-20T13:53:16;27.10;1.00
12817;DHT22;6473;51.552;6.716;2023-07-20T13:58:11;26.80;1.00
12817;DHT22;6473;51.552;6.716;2023-07-20T14:00:38;26.00;1.00
12817;DHT22;6473;51.552;6.716;2023-07-20T14:03:05;25.80;1.00
12817;DHT22;6473;51.552;6.716;2023-07-20T14:05:32;25.80;1.00
12817;DHT22;6473;51.552;6.716;2023-07-20T14:07:59;25.60;1.00
12817;DHT22;6473;51.552;6.716;2023-07-20T14:10:26;25.30;1.00
12817;DHT22;6473;51.552;6.716;2023-07-20T14:12:53;25.40;1.00
12817;DHT22;6473;51.552;6.716;2023-07-20T14:15:21;25.40;1.00
12817;DHT22;6473;51.552;6.716;2023-07-20T14:17:48;25.40;1.00
12817;DHT22;6473;51.552;6.716;2023-07-20T14:20:15;25.20;1.00
12817;DHT22;6473;51.552;6.716;2023-07-20T14:22:42;25.30;1.00
12817;DHT22;6473;51.552;6.716;2023-07-20T14:25:10;25.20;1.00
12817;DHT22;6473;51.552;6.716;2023-07-20T14:27:36;25.90;1.00
12817;DHT22;6473;51.552;6.716;2023-07-20T14:30:04;25.20;1.00
12817;DHT22;6473;51.552;6.716;2023-07-20T14:32:33;25.60;1.00
12817;DHT22;6473;51.552;6.716;2023-07-20T14:34:59;25.70;1.00
12817;DHT22;6473;51.552;6.716;2023-07-20T14:37:26;25.70;1.00
12817;DHT22;6473;51.552;6.716;2023-07-20T14:39:53;25.70;1.00
12817;DHT22;6473;51.552;6.716;2023-07-20T14:42:37;25.80;1.00
12817;DHT22;6473;51.552;6.716;2023-07-20T14:45:05;25.70;1.00
12817;DHT22;6473;51.552;6.716;2023-07-20T14:47:33;25.30;1.00
12817;DHT22;6473;51.552;6.716;2023-07-20T14:50:00;25.30;1.00
12817;DHT22;6473;51.552;6.716;2023-07-20T14:52:27;25.10;1.00
12817;DHT22;6473;51.552;6.716;2023-07-20T14:54:55;25.10;1.00
12817;DHT22;6473;51.552;6.716;2023-07-20T14:57:22;25.10;1.00
12817;DHT22;6473;51.552;6.716;2023-07-20T14:59:49;25.10;1.00
12817;DHT22;6473;51.552;6.716;2023-07-20T15:02:16;24.90;1.00
12817;DHT22;6473;51.552;6.716;2023-07-20T15:04:48;24.70;1.00
12817;DHT22;6473;51.552;6.716;2023-07-20T15:07:16;24.60;1.00
12817;DHT22;6473;51.552;6.716;2023-07-20T15:09:43;24.50;1.00
12817;DHT22;6473;51.552;6.716;2023-07-20T15:12:10;24.70;1.00
12817;DHT22;6473;51.552;6.716;2023-07-20T15:14:40;24.90;1.00
12817;DHT22;6473;51.552;6.716;2023-07-20T15:17:07;25.00;1.00
12817;DHT22;6473;51.552;6.716;2023-07-20T15:19:34;25.00;1.00
12817;DHT22;6473;51.552;6.716;2023-07-20T15:22:03;24.60;1.00
12817;DHT22;6473;51.552;6.716;2023-07-20T15:24:31;24.30;1.00
12817;DHT22;6473;51.552;6.716;2023-07-20T15:26:58;25.40;1.00
12817;DHT22;6473;51.552;6.716;2023-07-20T15:29:25;24.90;1.00
12817;DHT22;6473;51.552;6.716;2023-07-20T15:31:52;25.00;1.00
12817;DHT22;6473;51.552;6.716;2023-07-20T15:34:19;25.00;1.00
12817;DHT22;6473;51.552;6.716;2023-07-20T15:36:46;25.00;1.00
12817;DHT22;6473;51.552;6.716;2023-07-20T15:39:14;24.90;1.00
12817;DHT22;6473;51.552;6.716;2023-07-20T15:41:41;25.00;1.00
12817;DHT22;6473;51.552;6.716;2023-07-20T15:44:08;25.20;1.00
12817;DHT22;6473;51.552;6.716;2023-07-20T15:46:46;25.40;1.00
12817;DHT22;6473;51.552;6.716;2023-07-20T15:49:14;25.40;1.00
12817;DHT22;6473;51.552;6.716;2023-07-20T15:51:40;25.00;1.00
12817;DHT22;6473;51.552;6.716;2023-07-20T15:54:09;25.00;1.00
12817;DHT22;6473;51.552;6.716;2023-07-20T15:56:39;26.60;1.00
12817;DHT22;6473;51.552;6.716;2023-07-20T15:59:07;24.80;1.00
12817;DHT22;6473;51.552;6.716;2023-07-20T16:01:34;24.80;1.00
12817;DHT22;6473;51.552;6.716;2023-07-20T16:04:02;24.70;1.00
12817;DHT22;6473;51.552;6.716;2023-07-20T16:06:28;24.50;1.00
12817;DHT22;6473;51.552;6.716;2023-07-20T16:08:55;25.10;1.00
12817;DHT22;6473;51.552;6.716;2023-07-20T16:11:22;24.40;1.00
12817;DHT22;6473;51.552;6.716;2023-07-20T16:13:51;24.30;1.00
12817;DHT22;6473;51.552;6.716;2023-07-20T16:16:18;24.20;1.00
12817;DHT22;6473;51.552;6.716;2023-07-20T16:18:45;24.10;1.00
12817;DHT22;6473;51.552;6.716;2023-07-20T16:21:11;24.10;1.00
12817;DHT22;6473;51.552;6.716;2023-07-20T16:23:38;25.00;1.00
12817;DHT22;6473;51.552;6.716;2023-07-20T16:26:05;23.90;1.00
12817;DHT22;6473;51.552;6.716;2023-07-20T16:28:32;23.70;1.00
12817;DHT22;6473;51.552;6.716;2023-07-20T16:31:00;23.60;1.00
12817;DHT22;6473;51.552;6.716;2023-07-20T16:33:35;23.70;1.00
12817;DHT22;6473;51.552;6.716;2023-07-20T16:36:02;23.50;1.00
12817;DHT22;6473;51.552;6.716;2023-07-20T16:38:28;23.60;1.00
12817;DHT22;6473;51.552;6.716;2023-07-20T16:40:55;23.40;1.00
12817;DHT22;6473;51.552;6.716;2023-07-20T16:43:23;23.30;1.00
12817;DHT22;6473;51.552;6.716;2023-07-20T16:45:49;23.30;1.00
12817;DHT22;6473;51.552;6.716;2023-07-20T16:48:18;23.30;1.00
12817;DHT22;6473;51.552;6.716;2023-07-20T16:51:04;23.40;1.00
12817;DHT22;6473;51.552;6.716;2023-07-20T16:53:31;23.80;1.00
12817;DHT22;6473;51.552;6.716;2023-07-20T16:55:58;23.30;1.00
12817;DHT22;6473;51.552;6.716;2023-07-20T16:58:26;24.30;1.00
12817;DHT22;6473;51.552;6.716;2023-07-20T17:00:59;23.10;1.00
12817;DHT22;6473;51.552;6.716;2023-07-20T17:03:28;23.00;1.00
12817;DHT22;6473;51.552;6.716;2023-07-20T17:05:55;24.30;1.00
12817;DHT22;6473;51.552;6.716;2023-07-20T17:08:22;23.10;1.00
12817;DHT22;6473;51.552;6.716;2023-07-20T17:10:49;23.00;1.00
12817;DHT22;6473;51.552;6.716;2023-07-20T17:13:16;23.10;1.00
12817;DHT22;6473;51.552;6.716;2023-07-20T17:15:46;22.90;1.00
12817;DHT22;6473;51.552;6.716;2023-07-20T17:18:13;22.90;1.00
12817;DHT22;6473;51.552;6.716;2023-07-20T17:20:42;22.90;1.00
12817;DHT22;6473;51.552;6.716;2023-07-20T17:23:08;22.90;1.00
12817;DHT22;6473;51.552;6.716;2023-07-20T17:25:36;23.10;1.00
12817;DHT22;6473;51.552;6.716;2023-07-20T17:28:03;23.10;1.00
12817;DHT22;6473;51.552;6.716;2023-07-20T17:30:29;23.10;1.00
12817;DHT22;6473;51.552;6.716;2023-07-20T17:32:56;23.00;1.00
12817;DHT22;6473;51.552;6.716;2023-07-20T17:35:23;22.90;1.00
12817;DHT22;6473;51.552;6.716;2023-07-20T17:37:53;22.90;1.00
12817;DHT22;6473;51.552;6.716;2023-07-20T17:40:20;22.90;1.00